Airfield :







YOU CAN JOIN US ON...

 
LOGIN :

Register | Disclaimer

   EN    FR    IT 

 









Legend :    VFR   Marginal VFR   IFR   Intensive IFR   Very Intensive IFR
Visi :
Ceiling :
>= 8 km
>= 3000ft
5 to 8 km
1000 to 3000 ft
1500m to 5 km
500 to 1000 ft
800 to 1500m
200 to 500 ft
< 800m
< 200 ft
Symbols :   Thunderstorms  Fog  Heavy snow  Heavy precipitations  Wind > 20 kt






- Airport Elevation : 193 ft
- IATA code : ZBF


CZBF - Bathurst

CURRENT METAR :
  • 300000Z AUTO 28010G20KT 260V320 9SM OVC043 13/05 A2985 RMK SLP112

EXPIRED METARs :
  • 292300Z AUTO 28009G22KT 240V310 9SM OVC039 13/06 A2983 RMK ICE MISG SLP104
  • 292200Z AUTO 29012G20KT 250V320 9SM BKN041 OVC047 14/06 A2981 RMK SLP098
  • 292100Z AUTO 29012G24KT 240V310 9SM BKN041 OVC050 14/06 A2978 RMK SLP087 DENSITY ALT 400FT
  • 292000Z AUTO 26014G26KT 240V310 9SM BKN039 15/07 A2976 RMK SLP079 DENSITY ALT 500FT

TAF TAF CZBF
Valid from the 29 at 20:00 until the 30 at 03:00 UTC


291940Z 2920/3003 27012G22KT P6SM BKN040
BECMG 2923/3001 28010KT RMK FCST BASED ON AUTO OBS. NXT FCST BY 300900Z
CZQM FIR / North America



MET'MAP, your aeronautical weather chart ! - Copyright ORBIFLY December 2007 - Disclaimer

ORBIFLY MET'MAP TEAM :

Programming & Development : Alexandra Zaïnal
Original concept : Baudouin d'Aumeries
Technical & hardware support : Manuel Goepfert
Assistance : Marc-Olivier Méhu




SOURCES & CREDITS :

   NOAA